createdAt,value
2023-03-16T00:00:30.057Z,0.00
2023-03-16T00:01:29.810Z,0.00
2023-03-16T00:02:29.802Z,0.00
2023-03-16T00:03:30.491Z,0.00
2023-03-16T00:04:29.788Z,0.00
2023-03-16T00:05:29.792Z,0.00
2023-03-16T00:06:29.785Z,0.00
2023-03-16T00:07:29.756Z,0.00
2023-03-16T00:08:29.771Z,0.00
2023-03-16T00:09:29.739Z,0.00
2023-03-16T00:10:29.929Z,0.00
2023-03-16T00:11:29.752Z,0.00
2023-03-16T00:12:29.730Z,0.00
2023-03-16T00:13:29.715Z,0.00
2023-03-16T00:14:29.751Z,0.00
2023-03-16T00:15:29.735Z,0.00
2023-03-16T00:16:29.890Z,0.00
2023-03-16T00:17:29.676Z,0.00
2023-03-16T00:18:29.671Z,0.00
2023-03-16T00:19:29.722Z,0.00
2023-03-16T00:20:29.680Z,0.00
2023-03-16T00:21:29.730Z,0.00
2023-03-16T00:22:29.647Z,0.00
2023-03-16T00:23:29.639Z,0.00
2023-03-16T00:24:29.646Z,0.00
2023-03-16T00:25:29.634Z,0.00
2023-03-16T00:26:29.655Z,0.00
2023-03-16T00:27:29.624Z,0.00
2023-03-16T00:28:29.598Z,0.00
2023-03-16T00:29:29.591Z,0.00
2023-03-16T00:30:29.717Z,0.00
2023-03-16T00:31:29.621Z,0.00
2023-03-16T00:32:29.641Z,0.00
2023-03-16T00:33:29.604Z,0.00
2023-03-16T00:34:29.564Z,0.00
2023-03-16T00:35:29.551Z,0.00
2023-03-16T00:36:29.644Z,0.00
2023-03-16T00:37:29.548Z,0.00
2023-03-16T00:38:29.564Z,0.00
2023-03-16T00:39:29.604Z,0.00
2023-03-16T00:40:30.508Z,0.00
2023-03-16T00:41:29.500Z,0.00
2023-03-16T00:42:29.519Z,0.00
2023-03-16T00:43:29.493Z,0.00
2023-03-16T00:44:29.506Z,0.00
2023-03-16T00:45:29.530Z,0.00
2023-03-16T00:46:29.482Z,0.00
2023-03-16T00:47:29.492Z,0.00
2023-03-16T00:48:29.537Z,0.00
2023-03-16T00:49:29.500Z,0.00
2023-03-16T00:50:29.811Z,0.00
2023-03-16T00:51:29.421Z,0.00
2023-03-16T00:52:29.462Z,0.00
2023-03-16T00:53:29.573Z,0.00
2023-03-16T00:54:29.404Z,0.00
2023-03-16T00:55:29.427Z,0.00
2023-03-16T00:56:29.408Z,0.00
2023-03-16T00:57:29.396Z,0.00
2023-03-16T00:58:29.407Z,0.00
2023-03-16T00:59:29.414Z,0.00
2023-03-16T01:00:29.675Z,0.00
2023-03-16T01:01:29.413Z,0.00
2023-03-16T01:02:29.345Z,0.00
2023-03-16T01:03:29.518Z,0.00
2023-03-16T01:04:29.331Z,0.00
2023-03-16T01:05:29.363Z,0.00
2023-03-16T01:06:29.357Z,0.00
2023-03-16T01:07:29.312Z,0.00
2023-03-16T01:08:29.290Z,0.00
2023-03-16T01:09:29.291Z,0.00
2023-03-16T01:10:29.809Z,0.00
2023-03-16T01:11:30.291Z,0.00
2023-03-16T01:12:29.260Z,0.00
2023-03-16T01:13:29.892Z,0.00
2023-03-16T01:14:29.283Z,0.00
2023-03-16T01:15:29.257Z,0.00
2023-03-16T01:16:29.283Z,0.00
2023-03-16T01:17:29.302Z,0.00
2023-03-16T01:18:29.249Z,0.00
2023-03-16T01:19:29.233Z,0.00
2023-03-16T01:20:29.629Z,0.00
2023-03-16T01:21:29.241Z,0.00
2023-03-16T01:22:29.187Z,0.00
2023-03-16T01:23:29.163Z,0.00
2023-03-16T01:24:30.232Z,0.00
2023-03-16T01:25:29.193Z,0.00
2023-03-16T01:26:29.163Z,0.00
2023-03-16T01:27:29.219Z,0.00
2023-03-16T01:28:29.197Z,0.00
2023-03-16T01:29:29.136Z,0.00
2023-03-16T01:30:29.594Z,0.00
2023-03-16T01:31:29.145Z,0.00
2023-03-16T01:32:29.258Z,0.00
2023-03-16T01:33:29.153Z,0.00
2023-03-16T01:34:29.182Z,0.00
2023-03-16T01:35:29.161Z,0.00
2023-03-16T01:36:29.836Z,0.00
2023-03-16T01:37:29.834Z,0.00
2023-03-16T01:38:29.096Z,0.00
2023-03-16T01:39:29.089Z,0.00
2023-03-16T01:40:30.165Z,0.00
2023-03-16T01:41:29.045Z,0.00
2023-03-16T01:42:29.077Z,0.00
2023-03-16T01:43:29.122Z,0.00
2023-03-16T01:44:29.039Z,0.00
2023-03-16T01:45:29.035Z,0.00
2023-03-16T01:46:29.092Z,0.00
2023-03-16T01:47:29.044Z,0.00
2023-03-16T01:48:29.061Z,0.00
2023-03-16T01:49:29.035Z,0.00
2023-03-16T01:50:29.507Z,0.00
2023-03-16T01:51:28.992Z,0.00
2023-03-16T01:52:29.864Z,0.00
2023-03-16T01:53:29.018Z,0.00
2023-03-16T01:54:28.992Z,0.00
2023-03-16T01:55:28.953Z,0.00
2023-03-16T01:56:28.964Z,0.00
2023-03-16T01:57:28.946Z,0.00
2023-03-16T01:58:28.993Z,0.00
2023-03-16T01:59:28.952Z,0.00
2023-03-16T02:00:29.235Z,0.00
2023-03-16T02:01:28.962Z,0.00
2023-03-16T02:02:28.909Z,0.00
2023-03-16T02:03:28.915Z,0.00
2023-03-16T02:04:28.949Z,0.00
2023-03-16T02:05:28.896Z,0.00
2023-03-16T02:06:29.842Z,0.00
2023-03-16T02:07:29.829Z,0.00
2023-03-16T02:08:29.854Z,0.00
2023-03-16T02:09:28.890Z,0.00
2023-03-16T02:10:29.317Z,0.00
2023-03-16T02:11:28.829Z,0.00
2023-03-16T02:12:28.862Z,0.00
2023-03-16T02:13:29.883Z,0.00
2023-03-16T02:14:28.824Z,0.00
2023-03-16T02:15:28.842Z,0.00
2023-03-16T02:17:01.292Z,0.00
2023-03-16T02:17:28.812Z,0.00
2023-03-16T02:18:28.787Z,0.00
2023-03-16T02:19:28.859Z,0.00
2023-03-16T02:20:29.140Z,0.00
2023-03-16T02:21:28.766Z,0.00
2023-03-16T02:22:28.749Z,0.00
2023-03-16T02:23:28.811Z,0.00
2023-03-16T02:24:28.771Z,0.00
2023-03-16T02:25:28.740Z,0.00
2023-03-16T02:26:29.405Z,0.00
2023-03-16T02:27:28.793Z,0.00
2023-03-16T02:28:28.743Z,0.00
2023-03-16T02:29:28.735Z,0.00
2023-03-16T02:30:29.054Z,0.00
2023-03-16T02:31:28.741Z,0.00
2023-03-16T02:32:28.720Z,0.00
2023-03-16T02:33:28.672Z,0.00
2023-03-16T02:34:28.666Z,0.00
2023-03-16T02:35:28.721Z,0.00
2023-03-16T02:36:28.635Z,0.00
2023-03-16T02:37:28.653Z,0.00
2023-03-16T02:38:28.644Z,0.00
2023-03-16T02:39:28.632Z,0.00
2023-03-16T02:40:29.001Z,0.00
2023-03-16T02:41:28.636Z,0.00
2023-03-16T02:42:28.613Z,0.00
2023-03-16T02:43:29.402Z,0.00
2023-03-16T02:44:28.604Z,0.00
2023-03-16T02:45:28.648Z,0.00
2023-03-16T02:46:28.715Z,0.00
2023-03-16T02:47:28.593Z,0.00
2023-03-16T02:48:28.565Z,0.00
2023-03-16T02:49:28.577Z,0.00
2023-03-16T02:50:28.978Z,0.00
2023-03-16T02:51:28.625Z,0.00
2023-03-16T02:52:28.544Z,0.00
2023-03-16T02:53:28.531Z,0.00
2023-03-16T02:54:28.537Z,0.00
2023-03-16T02:55:28.538Z,0.00
2023-03-16T02:56:28.562Z,0.00
2023-03-16T02:57:28.618Z,0.00
2023-03-16T02:58:28.507Z,0.00
2023-03-16T02:59:28.514Z,0.00
2023-03-16T03:00:28.733Z,0.00
2023-03-16T03:01:28.488Z,0.00
2023-03-16T03:02:28.498Z,0.00
2023-03-16T03:03:28.487Z,0.00
2023-03-16T03:04:28.469Z,0.00
2023-03-16T03:05:29.369Z,0.00
2023-03-16T03:06:28.425Z,0.00
2023-03-16T03:07:28.461Z,0.00
2023-03-16T03:08:28.440Z,0.00
2023-03-16T03:09:28.458Z,0.00
2023-03-16T03:10:28.716Z,0.00
2023-03-16T03:11:29.391Z,0.00
2023-03-16T03:12:28.408Z,0.00
2023-03-16T03:13:28.420Z,0.00
2023-03-16T03:14:28.395Z,0.00
2023-03-16T03:15:28.375Z,0.00
2023-03-16T03:16:28.445Z,0.00
2023-03-16T03:17:28.363Z,0.00
2023-03-16T03:18:28.357Z,0.00
2023-03-16T03:19:28.369Z,0.00
2023-03-16T03:20:28.533Z,0.00
2023-03-16T03:21:28.328Z,0.00
2023-03-16T03:22:28.427Z,0.00
2023-03-16T03:23:28.320Z,0.00
2023-03-16T03:24:28.304Z,0.00
2023-03-16T03:25:28.311Z,0.00
2023-03-16T03:26:28.335Z,0.00
2023-03-16T03:27:28.324Z,0.00
2023-03-16T03:28:28.283Z,0.00
2023-03-16T03:29:28.305Z,0.00
2023-03-16T03:30:28.601Z,0.00
2023-03-16T03:31:28.282Z,0.00
2023-03-16T03:32:28.305Z,0.00
2023-03-16T03:33:28.221Z,0.00
2023-03-16T03:34:28.323Z,0.00
2023-03-16T03:35:28.272Z,0.00
2023-03-16T03:36:28.212Z,0.00
2023-03-16T03:37:28.218Z,0.00
2023-03-16T03:38:28.224Z,0.00
2023-03-16T03:39:28.199Z,0.00
2023-03-16T03:40:28.415Z,0.00
2023-03-16T03:41:28.217Z,0.00
2023-03-16T03:42:28.199Z,0.00
2023-03-16T03:43:28.182Z,0.00
2023-03-16T03:44:28.179Z,0.00
2023-03-16T03:45:28.244Z,0.00
2023-03-16T03:46:28.381Z,0.00
2023-03-16T04:02:55.535Z,0.00
2023-03-16T04:03:55.379Z,0.00
2023-03-16T04:04:55.422Z,0.00
2023-03-16T04:05:56.534Z,0.00
2023-03-16T04:06:56.558Z,0.00
2023-03-16T04:07:56.497Z,0.00
2023-03-16T04:08:56.512Z,0.00
2023-03-16T04:09:56.505Z,0.00
2023-03-16T04:10:56.525Z,0.00
2023-03-16T04:11:56.524Z,0.00
2023-03-16T04:12:56.473Z,0.00
2023-03-16T04:13:56.479Z,0.00
2023-03-16T04:14:56.462Z,0.00
2023-03-16T04:15:56.456Z,0.00
2023-03-16T04:16:56.555Z,0.00
2023-03-16T04:17:56.478Z,0.00
2023-03-16T04:18:56.424Z,0.00
2023-03-16T04:19:56.443Z,0.00
2023-03-16T04:20:56.380Z,0.00
2023-03-16T04:21:56.401Z,0.00
2023-03-16T04:22:56.413Z,0.00
2023-03-16T04:23:56.386Z,0.00
2023-03-16T04:24:56.410Z,0.00
2023-03-16T04:25:56.380Z,0.00
2023-03-16T04:26:56.374Z,0.00
2023-03-16T04:27:56.388Z,0.00
2023-03-16T04:28:56.345Z,0.00
2023-03-16T04:29:56.405Z,0.00
2023-03-16T04:30:56.357Z,0.00
2023-03-16T04:31:56.418Z,0.00
2023-03-16T04:32:57.449Z,0.00
2023-03-16T04:33:57.098Z,0.00
2023-03-16T04:34:56.363Z,0.00
2023-03-16T04:35:56.348Z,0.00
2023-03-16T04:36:56.292Z,0.00
2023-03-16T04:37:56.260Z,0.00
2023-03-16T04:38:56.298Z,0.00
2023-03-16T04:39:56.255Z,0.00
2023-03-16T04:40:56.251Z,0.00
2023-03-16T04:41:56.254Z,0.00
2023-03-16T04:42:57.087Z,0.00
2023-03-16T04:43:56.995Z,0.00
2023-03-16T04:44:56.225Z,0.00
2023-03-16T04:45:56.308Z,0.00
2023-03-16T04:46:56.246Z,0.00
2023-03-16T04:47:56.184Z,0.00
2023-03-16T04:48:56.210Z,0.00
2023-03-16T04:49:56.194Z,0.00
2023-03-16T04:50:56.163Z,0.00
2023-03-16T04:51:56.178Z,0.00
2023-03-16T04:52:56.178Z,0.00
2023-03-16T04:53:56.323Z,0.00
2023-03-16T04:54:56.163Z,0.00
2023-03-16T04:55:56.166Z,0.00
2023-03-16T04:56:56.184Z,0.00
2023-03-16T04:57:56.190Z,0.00
2023-03-16T04:58:56.104Z,0.00
2023-03-16T04:59:56.112Z,0.00
2023-03-16T05:00:56.099Z,0.00
2023-03-16T05:01:56.195Z,0.00
2023-03-16T05:02:56.162Z,4.00
2023-03-16T05:03:57.918Z,0.00
2023-03-16T05:04:57.084Z,0.00
2023-03-16T05:06:02.310Z,4.00
2023-03-16T05:06:56.072Z,4.00
2023-03-16T05:07:56.144Z,4.00
2023-03-16T05:08:56.086Z,4.00
2023-03-16T05:09:56.176Z,4.00
2023-03-16T05:10:56.391Z,4.00
2023-03-16T05:11:56.023Z,8.00
2023-03-16T05:12:56.040Z,8.00
2023-03-16T05:13:56.989Z,8.00
2023-03-16T05:14:55.992Z,8.00
2023-03-16T05:15:56.017Z,8.00
2023-03-16T05:16:56.004Z,12.00
2023-03-16T05:17:56.644Z,16.00
2023-03-16T05:18:55.976Z,20.00
2023-03-16T05:19:56.063Z,20.00
2023-03-16T05:20:55.934Z,24.00
2023-03-16T05:21:57.430Z,32.00
2023-03-16T05:22:55.945Z,36.00
2023-03-16T05:23:55.959Z,40.00
2023-03-16T05:24:56.214Z,48.00
2023-03-16T05:25:55.915Z,56.00
2023-03-16T05:26:55.914Z,64.00
2023-03-16T05:27:55.912Z,76.00
2023-03-16T05:28:55.894Z,80.00
2023-03-16T05:29:55.910Z,88.00
2023-03-16T05:30:55.923Z,100.00
2023-03-16T05:31:55.951Z,116.00
2023-03-16T05:32:56.012Z,132.00
2023-03-16T05:33:55.870Z,148.00
2023-03-16T05:34:55.873Z,172.00
2023-03-16T05:35:55.874Z,196.00
2023-03-16T05:36:55.834Z,220.00
2023-03-16T05:37:55.841Z,244.00
2023-03-16T05:38:55.873Z,264.00
2023-03-16T05:39:55.868Z,296.00
2023-03-16T05:40:55.806Z,316.00
2023-03-16T05:41:55.846Z,340.00
2023-03-16T05:42:55.810Z,352.00
2023-03-16T05:43:55.785Z,368.00
2023-03-16T05:44:55.816Z,392.00
2023-03-16T05:45:55.785Z,420.00
2023-03-16T05:46:55.845Z,452.00
2023-03-16T05:47:55.953Z,500.00
2023-03-16T05:48:55.807Z,540.00
2023-03-16T05:49:56.649Z,572.00
2023-03-16T05:50:55.762Z,608.00
2023-03-16T05:51:55.773Z,660.00
2023-03-16T05:52:55.743Z,720.00
2023-03-16T05:53:55.704Z,776.00
2023-03-16T05:54:55.721Z,832.00
2023-03-16T05:55:55.698Z,884.00
2023-03-16T05:56:55.743Z,944.00
2023-03-16T05:57:55.733Z,1024.00
2023-03-16T05:58:55.700Z,1104.00
2023-03-16T05:59:56.689Z,1192.00
2023-03-16T06:00:55.655Z,1284.00
2023-03-16T06:01:55.681Z,1376.00
2023-03-16T06:02:55.757Z,1440.00
2023-03-16T06:03:55.791Z,1484.00
2023-03-16T06:04:56.598Z,1560.00
2023-03-16T06:05:55.627Z,1636.00
2023-03-16T06:06:55.630Z,1692.00
2023-03-16T06:07:55.652Z,1744.00
2023-03-16T06:08:55.623Z,1912.00
2023-03-16T06:09:55.640Z,2048.00
2023-03-16T06:10:55.608Z,2124.00
2023-03-16T06:11:55.624Z,2224.00
2023-03-16T06:12:55.617Z,2456.00
2023-03-16T06:13:55.560Z,2704.00
2023-03-16T06:14:55.555Z,2920.00
2023-03-16T06:15:55.599Z,3120.00
2023-03-16T06:16:55.563Z,3372.00
2023-03-16T06:17:55.539Z,3588.00
2023-03-16T06:18:56.593Z,3636.00
2023-03-16T06:19:55.568Z,3700.00
2023-03-16T06:20:55.506Z,3836.00
2023-03-16T06:21:55.599Z,4120.00
2023-03-16T06:22:56.434Z,4588.00
2023-03-16T06:23:55.561Z,5244.00
2023-03-16T06:24:55.540Z,6016.00
2023-03-16T06:25:55.507Z,6236.00
2023-03-16T06:26:55.518Z,6276.00
2023-03-16T06:27:55.489Z,6636.00
2023-03-16T06:28:55.556Z,7536.00
2023-03-16T06:29:55.441Z,7752.00
2023-03-16T06:30:55.512Z,8508.00
2023-03-16T06:31:55.661Z,9664.00
2023-03-16T06:32:55.524Z,12076.00
2023-03-16T06:33:55.474Z,11480.00
2023-03-16T06:34:55.432Z,12500.00
2023-03-16T06:35:55.500Z,13516.00
2023-03-16T06:36:55.435Z,14784.00
2023-03-16T06:37:55.430Z,15040.00
2023-03-16T06:38:55.451Z,12252.00
2023-03-16T06:39:55.431Z,14688.00
2023-03-16T06:40:55.447Z,15168.00
2023-03-16T06:41:55.427Z,12912.00
2023-03-16T06:42:55.387Z,13524.00
2023-03-16T06:43:55.376Z,11488.00
2023-03-16T06:44:55.359Z,13852.00
2023-03-16T06:45:56.429Z,14848.00
2023-03-16T06:46:55.354Z,14912.00
2023-03-16T06:47:56.132Z,14720.00
2023-03-16T06:48:55.341Z,16608.00
2023-03-16T06:49:55.360Z,18336.00
2023-03-16T06:50:55.343Z,21664.00
2023-03-16T06:51:55.293Z,16896.00
2023-03-16T06:52:55.289Z,15072.00
2023-03-16T06:53:55.299Z,11244.00
2023-03-16T06:54:55.261Z,11332.00
2023-03-16T06:55:55.278Z,7792.00
2023-03-16T06:56:55.269Z,8260.00
2023-03-16T06:57:55.291Z,8656.00
2023-03-16T06:58:55.246Z,7752.00
2023-03-16T06:59:55.322Z,8472.00
2023-03-16T07:00:55.390Z,8900.00
2023-03-16T07:01:55.307Z,7540.00
2023-03-16T07:02:55.212Z,7880.00
2023-03-16T07:03:55.229Z,9076.00
2023-03-16T07:04:55.198Z,9672.00
2023-03-16T07:05:55.199Z,11164.00
2023-03-16T07:06:55.237Z,13076.00
2023-03-16T07:07:55.182Z,14552.00
2023-03-16T07:08:55.186Z,12988.00
2023-03-16T07:09:55.157Z,18336.00
2023-03-16T07:10:55.158Z,18400.00
2023-03-16T07:11:55.178Z,16480.00
2023-03-16T07:12:55.155Z,17216.00
2023-03-16T07:13:55.126Z,22592.00
2023-03-16T07:14:55.129Z,24256.00
2023-03-16T07:15:55.154Z,22176.00
2023-03-16T07:16:55.220Z,27040.00
2023-03-16T07:17:55.113Z,36768.00
2023-03-16T07:18:55.096Z,39840.00
2023-03-16T07:19:55.095Z,38656.00
2023-03-16T07:20:55.088Z,34400.00
2023-03-16T07:21:55.079Z,66720.00
2023-03-16T07:22:55.068Z,48704.00
2023-03-16T07:23:55.098Z,46720.00
2023-03-16T07:24:55.060Z,53728.00
2023-03-16T07:25:55.057Z,52384.00
2023-03-16T07:26:55.032Z,50432.00
2023-03-16T07:27:55.065Z,42912.00
2023-03-16T07:28:57.878Z,29760.00
2023-03-16T07:29:55.142Z,48384.00
2023-03-16T07:31:03.326Z,44320.00
2023-03-16T07:31:57.128Z,57856.00
2023-03-16T07:32:55.080Z,47968.00
2023-03-16T07:33:55.036Z,62464.00
2023-03-16T07:34:55.754Z,47712.00
2023-03-16T07:35:54.982Z,50656.00
2023-03-16T07:36:54.967Z,44128.00
2023-03-16T07:37:54.991Z,53504.00
2023-03-16T07:38:54.974Z,49824.00
2023-03-16T07:39:54.992Z,43520.00
2023-03-16T07:40:54.951Z,45216.00
2023-03-16T07:41:54.942Z,37344.00
2023-03-16T07:42:54.920Z,37856.00
2023-03-16T07:43:54.921Z,32064.00
2023-03-16T07:44:54.935Z,39936.00
2023-03-16T07:45:54.977Z,49632.00
2023-03-16T07:46:54.887Z,45696.00
2023-03-16T07:47:54.885Z,50912.00
2023-03-16T07:48:54.858Z,46848.00
2023-03-16T07:49:54.933Z,45504.00
2023-03-16T07:50:54.860Z,49056.00
2023-03-16T07:51:54.850Z,45536.00
2023-03-16T07:52:54.872Z,34560.00
2023-03-16T07:53:54.820Z,56160.00
2023-03-16T07:54:54.876Z,64064.00
2023-03-16T07:55:54.826Z,70624.00
2023-03-16T07:56:54.802Z,68224.00
2023-03-16T07:57:54.815Z,74176.00
2023-03-16T07:58:54.784Z,73472.00
2023-03-16T07:59:54.797Z,69376.00
2023-03-16T08:00:54.823Z,65312.00
2023-03-16T08:01:54.902Z,65824.00
2023-03-16T08:02:54.840Z,69728.00
2023-03-16T08:03:54.791Z,66464.00
2023-03-16T08:04:54.746Z,79776.00
2023-03-16T08:05:54.769Z,78208.00
2023-03-16T08:06:54.730Z,72128.00
2023-03-16T08:07:54.743Z,70240.00
2023-03-16T08:08:54.712Z,81024.00
2023-03-16T08:09:54.698Z,68128.00
2023-03-16T08:10:56.630Z,77760.00
2023-03-16T08:11:55.681Z,77216.00
2023-03-16T08:12:54.822Z,78240.00
2023-03-16T08:13:54.680Z,78336.00
2023-03-16T08:14:54.705Z,68512.00
2023-03-16T08:15:54.677Z,73088.00
2023-03-16T08:16:54.658Z,78336.00
2023-03-16T08:17:54.720Z,79488.00
2023-03-16T08:18:54.651Z,80032.00
2023-03-16T08:19:54.628Z,81088.00
2023-03-16T08:20:54.633Z,82400.00
2023-03-16T08:22:01.386Z,85344.00
2023-03-16T08:22:56.760Z,90368.00
2023-03-16T08:23:54.587Z,89824.00
2023-03-16T08:24:54.618Z,88224.00
2023-03-16T08:25:54.635Z,89760.00
2023-03-16T08:26:54.578Z,88800.00
2023-03-16T08:27:54.574Z,98784.00
2023-03-16T08:28:54.605Z,99744.00
2023-03-16T08:29:54.556Z,100896.00
2023-03-16T08:30:54.570Z,101088.00
2023-03-16T08:31:54.576Z,100352.00
2023-03-16T08:32:54.551Z,98944.00
2023-03-16T08:33:54.555Z,101536.00
2023-03-16T08:34:54.492Z,101152.00
2023-03-16T08:35:54.553Z,98976.00
2023-03-16T08:36:54.530Z,91648.00
2023-03-16T08:37:54.517Z,77472.00
2023-03-16T08:39:06.048Z,87424.00
2023-03-16T08:39:56.507Z,94560.00
2023-03-16T08:40:54.467Z,90496.00
2023-03-16T08:41:54.489Z,91040.00
2023-03-16T08:42:54.469Z,92896.00
2023-03-16T08:43:54.438Z,80544.00
2023-03-16T08:44:54.440Z,87456.00
2023-03-16T08:45:54.430Z,91680.00
2023-03-16T08:46:54.436Z,91392.00
2023-03-16T08:47:54.402Z,90464.00
2023-03-16T08:48:54.401Z,86272.00
2023-03-16T08:49:54.397Z,88736.00
2023-03-16T08:50:54.442Z,86112.00
2023-03-16T08:51:54.390Z,84960.00
2023-03-16T08:52:54.405Z,84000.00
2023-03-16T08:53:55.115Z,82240.00
2023-03-16T08:55:03.096Z,79232.00
2023-03-16T08:55:56.358Z,77760.00
2023-03-16T08:56:54.365Z,81504.00
2023-03-16T08:57:55.049Z,89056.00
2023-03-16T08:58:54.322Z,98048.00
2023-03-16T08:59:54.386Z,55456.00
2023-03-16T09:00:55.154Z,30624.00
2023-03-16T09:01:54.379Z,29504.00
2023-03-16T09:02:54.317Z,29344.00
2023-03-16T09:03:54.327Z,30016.00
2023-03-16T09:04:54.281Z,31328.00
2023-03-16T09:05:56.049Z,29472.00
2023-03-16T09:07:09.886Z,28544.00
2023-03-16T09:07:56.316Z,36928.00
2023-03-16T09:08:54.260Z,41408.00
2023-03-16T09:09:54.303Z,42720.00
2023-03-16T09:10:54.267Z,39552.00
2023-03-16T09:11:54.248Z,36160.00
2023-03-16T09:12:54.362Z,34944.00
2023-03-16T09:13:54.299Z,35360.00
2023-03-16T09:14:54.209Z,36384.00
2023-03-16T09:15:54.292Z,34880.00
2023-03-16T09:16:54.300Z,33824.00
2023-03-16T09:17:55.066Z,32512.00
2023-03-16T09:18:54.247Z,32576.00
2023-03-16T09:19:57.748Z,33184.00
2023-03-16T09:20:56.966Z,33984.00
2023-03-16T09:21:54.174Z,32832.00
2023-03-16T09:22:54.155Z,33120.00
2023-03-16T09:23:55.198Z,33184.00
2023-03-16T09:24:54.161Z,33184.00
2023-03-16T09:25:54.281Z,30272.00
2023-03-16T09:26:54.207Z,33408.00
2023-03-16T09:27:54.217Z,24992.00
2023-03-16T09:28:54.140Z,32352.00
2023-03-16T09:29:54.134Z,22336.00
2023-03-16T09:30:54.131Z,21248.00
2023-03-16T09:31:54.160Z,22336.00
2023-03-16T09:32:54.075Z,25120.00
2023-03-16T09:33:54.086Z,30048.00
2023-03-16T09:34:54.094Z,31104.00
2023-03-16T09:35:54.086Z,26560.00
2023-03-16T09:36:55.076Z,33664.00
2023-03-16T09:38:07.347Z,33920.00
2023-03-16T09:38:56.145Z,29920.00
2023-03-16T09:39:57.952Z,29888.00
2023-03-16T09:40:56.041Z,30528.00
2023-03-16T09:41:54.055Z,31968.00
2023-03-16T09:42:54.022Z,33632.00
2023-03-16T09:43:54.030Z,36160.00
2023-03-16T09:44:54.020Z,41216.00
2023-03-16T09:45:54.089Z,44960.00
2023-03-16T09:46:53.995Z,44384.00
2023-03-16T09:47:53.953Z,49440.00
2023-03-16T09:48:55.028Z,51200.00
2023-03-16T09:49:54.016Z,55136.00
2023-03-16T09:50:54.326Z,57248.00
2023-03-16T09:51:53.986Z,62336.00
2023-03-16T09:52:53.949Z,59968.00
2023-03-16T09:53:53.946Z,56224.00
2023-03-16T09:54:53.966Z,47104.00
2023-03-16T09:55:53.978Z,39488.00
2023-03-16T09:56:53.918Z,34240.00
2023-03-16T09:57:53.929Z,29280.00
2023-03-16T09:58:54.674Z,28576.00
2023-03-16T09:59:53.904Z,26560.00
2023-03-16T10:00:53.963Z,25312.00
2023-03-16T10:01:53.897Z,24320.00
2023-03-16T10:02:53.867Z,22560.00
2023-03-16T10:03:53.945Z,20864.00
2023-03-16T10:04:53.851Z,19104.00
2023-03-16T10:05:53.866Z,18144.00
2023-03-16T10:06:53.879Z,11648.00
2023-03-16T10:07:53.832Z,16640.00
2023-03-16T10:08:53.881Z,18144.00
2023-03-16T10:09:54.574Z,18336.00
2023-03-16T10:10:53.904Z,17312.00
2023-03-16T10:11:53.881Z,18176.00
2023-03-16T10:12:53.827Z,18112.00
2023-03-16T10:13:53.776Z,18016.00
2023-03-16T10:14:53.821Z,17824.00
2023-03-16T10:15:53.778Z,17600.00
2023-03-16T10:16:53.931Z,17344.00
2023-03-16T10:17:53.783Z,16992.00
2023-03-16T10:18:53.751Z,16960.00
2023-03-16T10:19:53.752Z,17216.00
2023-03-16T10:20:53.762Z,16608.00
2023-03-16T10:21:53.785Z,16480.00
2023-03-16T10:22:53.736Z,16224.00
2023-03-16T10:23:53.715Z,15904.00
2023-03-16T10:24:53.711Z,16096.00
2023-03-16T10:25:53.688Z,15868.00
2023-03-16T10:26:53.736Z,15816.00
2023-03-16T10:27:53.756Z,15712.00
2023-03-16T10:28:53.675Z,15412.00
2023-03-16T10:29:53.663Z,15360.00
2023-03-16T10:30:53.673Z,15332.00
2023-03-16T10:31:53.722Z,15296.00
2023-03-16T10:32:53.745Z,15236.00
2023-03-16T10:33:53.692Z,15128.00
2023-03-16T10:34:53.668Z,14936.00
2023-03-16T10:35:53.650Z,14632.00
2023-03-16T10:36:53.614Z,14640.00
2023-03-16T10:37:53.642Z,14788.00
2023-03-16T10:38:54.664Z,14628.00
2023-03-16T10:39:53.610Z,14228.00
2023-03-16T10:40:53.606Z,14116.00
2023-03-16T10:41:53.667Z,14396.00
2023-03-16T10:42:53.612Z,14388.00
2023-03-16T10:43:53.611Z,14100.00
2023-03-16T10:44:53.585Z,14060.00
2023-03-16T10:45:53.629Z,14032.00
2023-03-16T10:46:53.682Z,14232.00
2023-03-16T10:47:53.553Z,14332.00
2023-03-16T10:48:53.584Z,14208.00
2023-03-16T10:49:53.522Z,14316.00
2023-03-16T10:50:53.535Z,14148.00
2023-03-16T10:51:53.501Z,14140.00
2023-03-16T10:52:53.553Z,14168.00
2023-03-16T10:53:53.538Z,14140.00
2023-03-16T10:54:53.526Z,13928.00
2023-03-16T10:55:53.499Z,13816.00
2023-03-16T10:56:53.485Z,13816.00
2023-03-16T10:57:53.494Z,13796.00
2023-03-16T10:58:53.470Z,13996.00
2023-03-16T10:59:54.198Z,14080.00
2023-03-16T11:00:53.614Z,14072.00
2023-03-16T11:01:53.446Z,14068.00
2023-03-16T11:02:53.451Z,14112.00
2023-03-16T11:03:53.427Z,14160.00
2023-03-16T11:04:53.478Z,14188.00
2023-03-16T11:05:53.500Z,14188.00
2023-03-16T11:06:53.408Z,13956.00
2023-03-16T11:07:53.401Z,13480.00
2023-03-16T11:08:53.913Z,12716.00
2023-03-16T11:09:53.396Z,12280.00
2023-03-16T11:10:56.118Z,12072.00
2023-03-16T11:11:54.354Z,11776.00
2023-03-16T11:12:53.345Z,11676.00
2023-03-16T11:13:53.349Z,11188.00
2023-03-16T11:14:53.350Z,10772.00
2023-03-16T11:15:53.401Z,10280.00
2023-03-16T11:16:53.421Z,10332.00
2023-03-16T11:17:53.334Z,10328.00
2023-03-16T11:18:53.293Z,10252.00
2023-03-16T11:19:53.309Z,10220.00
2023-03-16T11:20:53.301Z,10204.00
2023-03-16T11:21:53.297Z,10008.00
2023-03-16T11:22:53.294Z,10232.00
2023-03-16T11:23:53.282Z,10136.00
2023-03-16T11:24:53.321Z,10344.00
2023-03-16T11:25:53.272Z,10344.00
2023-03-16T11:26:53.281Z,10172.00
2023-03-16T11:27:53.317Z,10292.00
2023-03-16T11:28:53.220Z,10580.00
2023-03-16T11:29:53.244Z,10732.00
2023-03-16T11:30:53.297Z,10992.00
2023-03-16T11:31:53.240Z,11124.00
2023-03-16T11:32:53.227Z,11332.00
2023-03-16T11:33:53.225Z,11544.00
2023-03-16T11:34:53.208Z,11632.00
2023-03-16T11:35:59.313Z,11816.00
2023-03-16T11:36:55.200Z,11464.00
2023-03-16T11:37:53.197Z,11712.00
2023-03-16T11:38:54.531Z,11668.00
2023-03-16T11:39:53.235Z,11644.00
2023-03-16T11:40:53.124Z,11808.00
2023-03-16T11:41:53.127Z,11832.00
2023-03-16T11:42:53.139Z,11796.00
2023-03-16T11:43:53.166Z,11728.00
2023-03-16T11:44:53.102Z,11696.00
2023-03-16T11:45:53.109Z,11584.00
2023-03-16T11:46:53.140Z,11424.00
2023-03-16T11:47:53.115Z,11276.00
2023-03-16T11:48:53.111Z,10948.00
2023-03-16T11:49:53.067Z,10708.00
2023-03-16T11:50:53.051Z,10432.00
2023-03-16T11:51:53.082Z,10588.00
2023-03-16T11:52:53.053Z,10184.00
2023-03-16T11:53:53.097Z,9948.00
2023-03-16T11:54:53.053Z,9848.00
2023-03-16T11:55:53.019Z,9584.00
2023-03-16T11:56:53.012Z,9512.00
2023-03-16T11:57:53.009Z,9856.00
2023-03-16T11:58:53.002Z,9676.00
2023-03-16T12:00:01.208Z,9264.00
2023-03-16T12:00:55.007Z,8932.00
2023-03-16T12:02:00.104Z,8464.00
2023-03-16T12:02:55.084Z,8284.00
2023-03-16T12:03:53.080Z,7952.00
2023-03-16T12:04:52.993Z,7784.00
2023-03-16T12:05:52.984Z,7808.00
2023-03-16T12:06:52.969Z,7868.00
2023-03-16T12:07:52.966Z,8024.00
2023-03-16T12:09:25.617Z,8240.00
2023-03-16T12:09:52.978Z,8460.00
2023-03-16T12:10:53.028Z,8700.00
2023-03-16T12:11:52.925Z,8872.00
2023-03-16T12:12:52.890Z,9036.00
2023-03-16T12:13:52.943Z,9348.00
2023-03-16T12:14:52.885Z,9648.00
2023-03-16T12:15:52.958Z,9960.00
2023-03-16T12:16:52.930Z,10328.00
2023-03-16T12:17:52.871Z,10576.00
2023-03-16T12:18:52.842Z,10900.00
2023-03-16T12:19:52.857Z,11044.00
2023-03-16T12:20:52.867Z,11184.00
2023-03-16T12:21:52.844Z,11280.00
2023-03-16T12:22:52.892Z,11416.00
2023-03-16T12:23:52.842Z,11984.00
2023-03-16T12:24:52.792Z,12196.00
2023-03-16T12:25:52.814Z,12232.00
2023-03-16T12:26:53.770Z,12012.00
2023-03-16T12:27:52.868Z,12396.00
2023-03-16T12:28:52.811Z,12416.00
2023-03-16T12:29:52.762Z,11752.00
2023-03-16T12:30:52.763Z,11248.00
2023-03-16T12:31:52.863Z,11424.00
2023-03-16T12:32:52.841Z,11652.00
2023-03-16T12:33:52.707Z,11860.00
2023-03-16T12:34:52.725Z,11988.00
2023-03-16T12:35:52.733Z,12012.00
2023-03-16T12:36:52.724Z,11976.00
2023-03-16T12:37:52.901Z,10592.00
2023-03-16T12:38:52.708Z,11632.00
2023-03-16T12:39:52.693Z,12200.00